<?xml version="1.0" encoding="UTF-8" standalone="no" ?>
<gpx xmlns="http://www.topografix.com/GPX/1/1" xmlns:xsi="http://www.w3.org/2001/XMLSchema-instance" xsi:schemaLocation="http://www.topografix.com/GPX/1/1 http://www.topografix.com/GPX/1/1/gpx.xsd" version="1.1" creator="VisuGPX - https://www.visugpx.com">
  <metadata>
    <name>Tracé Equipe E du point I au Point 2-16183022</name>
  </metadata>
  <trk>
    <name><![CDATA[Tracé Equipe E du point I au Point 2-16183022]]></name>
    <trkseg>
      <trkpt lat="48.39958" lon="2.51684">
        <ele>76</ele>
        <time>2023-02-27T12:43:43Z</time>
      </trkpt>
      <trkpt lat="48.3993" lon="2.51769">
        <ele>77</ele>
        <time>2023-02-27T12:43:58Z</time>
      </trkpt>
      <trkpt lat="48.39901" lon="2.51853">
        <ele>82</ele>
        <time>2023-02-27T12:44:12Z</time>
      </trkpt>
      <trkpt lat="48.39858" lon="2.51876">
        <ele>86</ele>
        <time>2023-02-27T12:44:23Z</time>
      </trkpt>
      <trkpt lat="48.39825" lon="2.51941">
        <ele>90</ele>
        <time>2023-02-27T12:44:36Z</time>
      </trkpt>
      <trkpt lat="48.3977" lon="2.51976">
        <ele>97</ele>
        <time>2023-02-27T12:44:50Z</time>
      </trkpt>
      <trkpt lat="48.39753" lon="2.52004">
        <ele>97</ele>
        <time>2023-02-27T12:44:56Z</time>
      </trkpt>
      <trkpt lat="48.39734" lon="2.52128">
        <ele>98</ele>
        <time>2023-02-27T12:45:15Z</time>
      </trkpt>
      <trkpt lat="48.39714" lon="2.52251">
        <ele>104</ele>
        <time>2023-02-27T12:45:35Z</time>
      </trkpt>
      <trkpt lat="48.39698" lon="2.5228">
        <ele>105</ele>
        <time>2023-02-27T12:45:41Z</time>
      </trkpt>
      <trkpt lat="48.39686" lon="2.5233">
        <ele>105</ele>
        <time>2023-02-27T12:45:49Z</time>
      </trkpt>
      <trkpt lat="48.39686" lon="2.52398">
        <ele>106</ele>
        <time>2023-02-27T12:46:00Z</time>
      </trkpt>
      <trkpt lat="48.39674" lon="2.52432">
        <ele>106</ele>
        <time>2023-02-27T12:46:06Z</time>
      </trkpt>
      <trkpt lat="48.39652" lon="2.52461">
        <ele>108</ele>
        <time>2023-02-27T12:46:12Z</time>
      </trkpt>
      <trkpt lat="48.39646" lon="2.52486">
        <ele>109</ele>
        <time>2023-02-27T12:46:16Z</time>
      </trkpt>
      <trkpt lat="48.39642" lon="2.52589">
        <ele>112</ele>
        <time>2023-02-27T12:46:32Z</time>
      </trkpt>
      <trkpt lat="48.39626" lon="2.52712">
        <ele>116</ele>
        <time>2023-02-27T12:46:52Z</time>
      </trkpt>
      <trkpt lat="48.39605" lon="2.52758">
        <ele>118</ele>
        <time>2023-02-27T12:47:01Z</time>
      </trkpt>
      <trkpt lat="48.39604" lon="2.52858">
        <ele>119</ele>
        <time>2023-02-27T12:47:16Z</time>
      </trkpt>
      <trkpt lat="48.39608" lon="2.52968">
        <ele>119</ele>
        <time>2023-02-27T12:47:33Z</time>
      </trkpt>
      <trkpt lat="48.39596" lon="2.53059">
        <ele>120</ele>
        <time>2023-02-27T12:47:48Z</time>
      </trkpt>
      <trkpt lat="48.39586" lon="2.53185">
        <ele>121</ele>
        <time>2023-02-27T12:48:07Z</time>
      </trkpt>
      <trkpt lat="48.39575" lon="2.53234">
        <ele>120</ele>
        <time>2023-02-27T12:48:15Z</time>
      </trkpt>
      <trkpt lat="48.3955" lon="2.5331">
        <ele>122</ele>
        <time>2023-02-27T12:48:28Z</time>
      </trkpt>
      <trkpt lat="48.39525" lon="2.53451">
        <ele>124</ele>
        <time>2023-02-27T12:48:51Z</time>
      </trkpt>
      <trkpt lat="48.3953" lon="2.53463">
        <ele>123</ele>
        <time>2023-02-27T12:48:53Z</time>
      </trkpt>
      <trkpt lat="48.39531" lon="2.53488">
        <ele>123</ele>
        <time>2023-02-27T12:48:57Z</time>
      </trkpt>
      <trkpt lat="48.39528" lon="2.53528">
        <ele>123</ele>
        <time>2023-02-27T12:49:03Z</time>
      </trkpt>
      <trkpt lat="48.3952" lon="2.5359">
        <ele>123</ele>
        <time>2023-02-27T12:49:13Z</time>
      </trkpt>
      <trkpt lat="48.39519" lon="2.53628">
        <ele>122</ele>
        <time>2023-02-27T12:49:19Z</time>
      </trkpt>
      <trkpt lat="48.39507" lon="2.53702">
        <ele>120</ele>
        <time>2023-02-27T12:49:31Z</time>
      </trkpt>
      <trkpt lat="48.39501" lon="2.53725">
        <ele>120</ele>
        <time>2023-02-27T12:49:35Z</time>
      </trkpt>
      <trkpt lat="48.39485" lon="2.53763">
        <ele>119</ele>
        <time>2023-02-27T12:49:42Z</time>
      </trkpt>
      <trkpt lat="48.39479" lon="2.53825">
        <ele>120</ele>
        <time>2023-02-27T12:49:51Z</time>
      </trkpt>
      <trkpt lat="48.39479" lon="2.53928">
        <ele>120</ele>
        <time>2023-02-27T12:50:07Z</time>
      </trkpt>
      <trkpt lat="48.39475" lon="2.53963">
        <ele>121</ele>
        <time>2023-02-27T12:50:13Z</time>
      </trkpt>
      <trkpt lat="48.39459" lon="2.54034">
        <ele>122</ele>
        <time>2023-02-27T12:50:24Z</time>
      </trkpt>
      <trkpt lat="48.39422" lon="2.54129">
        <ele>120</ele>
        <time>2023-02-27T12:50:42Z</time>
      </trkpt>
      <trkpt lat="48.39409" lon="2.54146">
        <ele>120</ele>
        <time>2023-02-27T12:50:46Z</time>
      </trkpt>
      <trkpt lat="48.39386" lon="2.5418">
        <ele>118</ele>
        <time>2023-02-27T12:50:53Z</time>
      </trkpt>
      <trkpt lat="48.39361" lon="2.54194">
        <ele>118</ele>
        <time>2023-02-27T12:50:59Z</time>
      </trkpt>
      <trkpt lat="48.39345" lon="2.54207">
        <ele>118</ele>
        <time>2023-02-27T12:51:04Z</time>
      </trkpt>
      <trkpt lat="48.39342" lon="2.54289">
        <ele>113</ele>
        <time>2023-02-27T12:51:16Z</time>
      </trkpt>
      <trkpt lat="48.39346" lon="2.54329">
        <ele>111</ele>
        <time>2023-02-27T12:51:23Z</time>
      </trkpt>
      <trkpt lat="48.39343" lon="2.54363">
        <ele>109</ele>
        <time>2023-02-27T12:51:28Z</time>
      </trkpt>
      <trkpt lat="48.39334" lon="2.54453">
        <ele>102</ele>
        <time>2023-02-27T12:51:42Z</time>
      </trkpt>
      <trkpt lat="48.3933" lon="2.54526">
        <ele>96</ele>
        <time>2023-02-27T12:51:53Z</time>
      </trkpt>
      <trkpt lat="48.3934" lon="2.5459">
        <ele>93</ele>
        <time>2023-02-27T12:52:04Z</time>
      </trkpt>
      <trkpt lat="48.39331" lon="2.54688">
        <ele>89</ele>
        <time>2023-02-27T12:52:19Z</time>
      </trkpt>
      <trkpt lat="48.39321" lon="2.54785">
        <ele>87</ele>
        <time>2023-02-27T12:52:34Z</time>
      </trkpt>
      <trkpt lat="48.39305" lon="2.54909">
        <ele>83</ele>
        <time>2023-02-27T12:52:54Z</time>
      </trkpt>
      <trkpt lat="48.39288" lon="2.55032">
        <ele>80</ele>
        <time>2023-02-27T12:53:13Z</time>
      </trkpt>
      <trkpt lat="48.39285" lon="2.55072">
        <ele>80</ele>
        <time>2023-02-27T12:53:19Z</time>
      </trkpt>
      <trkpt lat="48.39291" lon="2.55107">
        <ele>80</ele>
        <time>2023-02-27T12:53:25Z</time>
      </trkpt>
      <trkpt lat="48.39187" lon="2.54988">
        <ele>80</ele>
        <time>2023-02-27T12:53:56Z</time>
      </trkpt>
      <trkpt lat="48.3916" lon="2.54957">
        <ele>80</ele>
        <time>2023-02-27T12:54:03Z</time>
      </trkpt>
      <trkpt lat="48.39146" lon="2.55045">
        <ele>80</ele>
        <time>2023-02-27T12:54:18Z</time>
      </trkpt>
      <trkpt lat="48.39132" lon="2.55133">
        <ele>80</ele>
        <time>2023-02-27T12:54:32Z</time>
      </trkpt>
      <trkpt lat="48.39117" lon="2.55225">
        <ele>79</ele>
        <time>2023-02-27T12:54:46Z</time>
      </trkpt>
      <trkpt lat="48.39102" lon="2.55327">
        <ele>77</ele>
        <time>2023-02-27T12:55:02Z</time>
      </trkpt>
      <trkpt lat="48.39091" lon="2.55423">
        <ele>74</ele>
        <time>2023-02-27T12:55:18Z</time>
      </trkpt>
      <trkpt lat="48.39073" lon="2.55427">
        <ele>74</ele>
        <time>2023-02-27T12:55:22Z</time>
      </trkpt>
      <trkpt lat="48.39052" lon="2.55439">
        <ele>75</ele>
        <time>2023-02-27T12:55:27Z</time>
      </trkpt>
      <trkpt lat="48.39019" lon="2.55444">
        <ele>76</ele>
        <time>2023-02-27T12:55:35Z</time>
      </trkpt>
      <trkpt lat="48.3901" lon="2.5545">
        <ele>76</ele>
        <time>2023-02-27T12:55:37Z</time>
      </trkpt>
      <trkpt lat="48.38994" lon="2.55453">
        <ele>76</ele>
        <time>2023-02-27T12:55:41Z</time>
      </trkpt>
      <trkpt lat="48.38993" lon="2.55493">
        <ele>76</ele>
        <time>2023-02-27T12:55:47Z</time>
      </trkpt>
      <trkpt lat="48.39007" lon="2.55567">
        <ele>77</ele>
        <time>2023-02-27T12:55:59Z</time>
      </trkpt>
      <trkpt lat="48.39031" lon="2.55556">
        <ele>76</ele>
        <time>2023-02-27T12:56:05Z</time>
      </trkpt>
      <trkpt lat="48.39097" lon="2.55528">
        <ele>75</ele>
        <time>2023-02-27T12:56:21Z</time>
      </trkpt>
      <trkpt lat="48.39178" lon="2.55508">
        <ele>76</ele>
        <time>2023-02-27T12:56:40Z</time>
      </trkpt>
      <trkpt lat="48.39259" lon="2.55487">
        <ele>76</ele>
        <time>2023-02-27T12:56:59Z</time>
      </trkpt>
      <trkpt lat="48.39286" lon="2.55492">
        <ele>76</ele>
        <time>2023-02-27T12:57:06Z</time>
      </trkpt>
      <trkpt lat="48.39323" lon="2.55521">
        <ele>78</ele>
        <time>2023-02-27T12:57:15Z</time>
      </trkpt>
      <trkpt lat="48.39335" lon="2.55519">
        <ele>78</ele>
        <time>2023-02-27T12:57:18Z</time>
      </trkpt>
      <trkpt lat="48.39345" lon="2.55519">
        <ele>78</ele>
        <time>2023-02-27T12:57:20Z</time>
      </trkpt>
      <trkpt lat="48.39359" lon="2.55521">
        <ele>78</ele>
        <time>2023-02-27T12:57:24Z</time>
      </trkpt>
      <trkpt lat="48.3937" lon="2.55523">
        <ele>78</ele>
        <time>2023-02-27T12:57:26Z</time>
      </trkpt>
      <trkpt lat="48.39388" lon="2.55534">
        <ele>79</ele>
        <time>2023-02-27T12:57:31Z</time>
      </trkpt>
      <trkpt lat="48.39428" lon="2.55565">
        <ele>80</ele>
        <time>2023-02-27T12:57:41Z</time>
      </trkpt>
      <trkpt lat="48.39442" lon="2.5558">
        <ele>80</ele>
        <time>2023-02-27T12:57:45Z</time>
      </trkpt>
      <trkpt lat="48.39466" lon="2.55605">
        <ele>80</ele>
        <time>2023-02-27T12:57:52Z</time>
      </trkpt>
      <trkpt lat="48.39457" lon="2.55865">
        <ele>85</ele>
        <time>2023-02-27T12:58:33Z</time>
      </trkpt>
      <trkpt lat="48.39449" lon="2.55989">
        <ele>85</ele>
        <time>2023-02-27T12:58:52Z</time>
      </trkpt>
      <trkpt lat="48.39426" lon="2.56087">
        <ele>84</ele>
        <time>2023-02-27T12:59:08Z</time>
      </trkpt>
      <trkpt lat="48.39414" lon="2.56192">
        <ele>84</ele>
        <time>2023-02-27T12:59:25Z</time>
      </trkpt>
      <trkpt lat="48.39407" lon="2.56359">
        <ele>80</ele>
        <time>2023-02-27T12:59:50Z</time>
      </trkpt>
      <trkpt lat="48.39406" lon="2.56386">
        <ele>79</ele>
        <time>2023-02-27T12:59:55Z</time>
      </trkpt>
      <trkpt lat="48.39392" lon="2.56484">
        <ele>78</ele>
        <time>2023-02-27T13:00:10Z</time>
      </trkpt>
      <trkpt lat="48.39378" lon="2.56582">
        <ele>80</ele>
        <time>2023-02-27T13:00:26Z</time>
      </trkpt>
      <trkpt lat="48.39364" lon="2.5667">
        <ele>81</ele>
        <time>2023-02-27T13:00:40Z</time>
      </trkpt>
      <trkpt lat="48.39354" lon="2.56757">
        <ele>81</ele>
        <time>2023-02-27T13:00:54Z</time>
      </trkpt>
      <trkpt lat="48.39334" lon="2.56822">
        <ele>83</ele>
        <time>2023-02-27T13:01:05Z</time>
      </trkpt>
      <trkpt lat="48.39341" lon="2.56847">
        <ele>82</ele>
        <time>2023-02-27T13:01:09Z</time>
      </trkpt>
      <trkpt lat="48.39314" lon="2.57112">
        <ele>83</ele>
        <time>2023-02-27T13:01:50Z</time>
      </trkpt>
      <trkpt lat="48.39297" lon="2.57276">
        <ele>81</ele>
        <time>2023-02-27T13:02:16Z</time>
      </trkpt>
      <trkpt lat="48.39281" lon="2.57362">
        <ele>83</ele>
        <time>2023-02-27T13:02:30Z</time>
      </trkpt>
      <trkpt lat="48.39272" lon="2.57463">
        <ele>82</ele>
        <time>2023-02-27T13:02:46Z</time>
      </trkpt>
      <trkpt lat="48.39262" lon="2.57563">
        <ele>82</ele>
        <time>2023-02-27T13:03:01Z</time>
      </trkpt>
      <trkpt lat="48.39252" lon="2.57652">
        <ele>82</ele>
        <time>2023-02-27T13:03:15Z</time>
      </trkpt>
      <trkpt lat="48.39227" lon="2.57698">
        <ele>86</ele>
        <time>2023-02-27T13:03:25Z</time>
      </trkpt>
      <trkpt lat="48.39221" lon="2.57785">
        <ele>86</ele>
        <time>2023-02-27T13:03:38Z</time>
      </trkpt>
      <trkpt lat="48.39225" lon="2.57881">
        <ele>86</ele>
        <time>2023-02-27T13:03:53Z</time>
      </trkpt>
      <trkpt lat="48.39229" lon="2.57977">
        <ele>85</ele>
        <time>2023-02-27T13:04:08Z</time>
      </trkpt>
      <trkpt lat="48.39197" lon="2.58101">
        <ele>90</ele>
        <time>2023-02-27T13:04:29Z</time>
      </trkpt>
      <trkpt lat="48.39252" lon="2.58147">
        <ele>84</ele>
        <time>2023-02-27T13:04:43Z</time>
      </trkpt>
      <trkpt lat="48.39304" lon="2.58189">
        <ele>83</ele>
        <time>2023-02-27T13:04:57Z</time>
      </trkpt>
      <trkpt lat="48.39363" lon="2.58247">
        <ele>83</ele>
        <time>2023-02-27T13:05:14Z</time>
      </trkpt>
      <trkpt lat="48.39411" lon="2.58287">
        <ele>83</ele>
        <time>2023-02-27T13:05:26Z</time>
      </trkpt>
      <trkpt lat="48.39404" lon="2.58321">
        <ele>85</ele>
        <time>2023-02-27T13:05:32Z</time>
      </trkpt>
      <trkpt lat="48.39424" lon="2.58349">
        <ele>85</ele>
        <time>2023-02-27T13:05:38Z</time>
      </trkpt>
      <trkpt lat="48.39445" lon="2.58398">
        <ele>87</ele>
        <time>2023-02-27T13:05:47Z</time>
      </trkpt>
      <trkpt lat="48.39468" lon="2.58461">
        <ele>88</ele>
        <time>2023-02-27T13:05:59Z</time>
      </trkpt>
      <trkpt lat="48.39494" lon="2.58529">
        <ele>89</ele>
        <time>2023-02-27T13:06:11Z</time>
      </trkpt>
      <trkpt lat="48.39517" lon="2.58579">
        <ele>90</ele>
        <time>2023-02-27T13:06:20Z</time>
      </trkpt>
      <trkpt lat="48.39628" lon="2.58857">
        <ele>87</ele>
        <time>2023-02-27T13:07:10Z</time>
      </trkpt>
      <trkpt lat="48.39642" lon="2.58882">
        <ele>87</ele>
        <time>2023-02-27T13:07:16Z</time>
      </trkpt>
      <trkpt lat="48.39657" lon="2.58866">
        <ele>87</ele>
        <time>2023-02-27T13:07:20Z</time>
      </trkpt>
      <trkpt lat="48.39712" lon="2.58849">
        <ele>92</ele>
        <time>2023-02-27T13:07:33Z</time>
      </trkpt>
      <trkpt lat="48.39732" lon="2.58849">
        <ele>94</ele>
        <time>2023-02-27T13:07:38Z</time>
      </trkpt>
      <trkpt lat="48.39746" lon="2.58857">
        <ele>96</ele>
        <time>2023-02-27T13:07:41Z</time>
      </trkpt>
      <trkpt lat="48.39764" lon="2.58872">
        <ele>97</ele>
        <time>2023-02-27T13:07:46Z</time>
      </trkpt>
      <trkpt lat="48.39787" lon="2.58879">
        <ele>100</ele>
        <time>2023-02-27T13:07:51Z</time>
      </trkpt>
      <trkpt lat="48.39815" lon="2.58891">
        <ele>102</ele>
        <time>2023-02-27T13:07:58Z</time>
      </trkpt>
      <trkpt lat="48.3982" lon="2.58897">
        <ele>103</ele>
        <time>2023-02-27T13:08:00Z</time>
      </trkpt>
      <trkpt lat="48.39825" lon="2.58908">
        <ele>103</ele>
        <time>2023-02-27T13:08:02Z</time>
      </trkpt>
      <trkpt lat="48.39835" lon="2.58941">
        <ele>106</ele>
        <time>2023-02-27T13:08:07Z</time>
      </trkpt>
      <trkpt lat="48.39842" lon="2.58989">
        <ele>109</ele>
        <time>2023-02-27T13:08:15Z</time>
      </trkpt>
      <trkpt lat="48.39847" lon="2.58999">
        <ele>110</ele>
        <time>2023-02-27T13:08:17Z</time>
      </trkpt>
      <trkpt lat="48.39853" lon="2.59002">
        <ele>111</ele>
        <time>2023-02-27T13:08:18Z</time>
      </trkpt>
      <trkpt lat="48.39886" lon="2.58988">
        <ele>113</ele>
        <time>2023-02-27T13:08:26Z</time>
      </trkpt>
      <trkpt lat="48.39895" lon="2.58989">
        <ele>113</ele>
        <time>2023-02-27T13:08:28Z</time>
      </trkpt>
      <trkpt lat="48.39903" lon="2.58995">
        <ele>114</ele>
        <time>2023-02-27T13:08:31Z</time>
      </trkpt>
      <trkpt lat="48.39919" lon="2.59032">
        <ele>115</ele>
        <time>2023-02-27T13:08:37Z</time>
      </trkpt>
      <trkpt lat="48.39918" lon="2.59032">
        <ele>115</ele>
        <time>2023-02-27T13:08:38Z</time>
      </trkpt>
      <trkpt lat="48.3993" lon="2.59059">
        <ele>114</ele>
        <time>2023-02-27T13:08:43Z</time>
      </trkpt>
      <trkpt lat="48.39932" lon="2.59069">
        <ele>114</ele>
        <time>2023-02-27T13:08:44Z</time>
      </trkpt>
      <trkpt lat="48.39932" lon="2.59081">
        <ele>115</ele>
        <time>2023-02-27T13:08:46Z</time>
      </trkpt>
      <trkpt lat="48.39922" lon="2.59126">
        <ele>118</ele>
        <time>2023-02-27T13:08:54Z</time>
      </trkpt>
      <trkpt lat="48.39922" lon="2.59144">
        <ele>119</ele>
        <time>2023-02-27T13:08:56Z</time>
      </trkpt>
      <trkpt lat="48.39935" lon="2.59217">
        <ele>120</ele>
        <time>2023-02-27T13:09:08Z</time>
      </trkpt>
      <trkpt lat="48.39941" lon="2.5927">
        <ele>121</ele>
        <time>2023-02-27T13:09:16Z</time>
      </trkpt>
      <trkpt lat="48.39939" lon="2.59287">
        <ele>121</ele>
        <time>2023-02-27T13:09:19Z</time>
      </trkpt>
      <trkpt lat="48.39932" lon="2.59313">
        <ele>122</ele>
        <time>2023-02-27T13:09:23Z</time>
      </trkpt>
      <trkpt lat="48.3993" lon="2.59347">
        <ele>122</ele>
        <time>2023-02-27T13:09:29Z</time>
      </trkpt>
      <trkpt lat="48.39931" lon="2.59373">
        <ele>122</ele>
        <time>2023-02-27T13:09:33Z</time>
      </trkpt>
      <trkpt lat="48.39934" lon="2.5944">
        <ele>121</ele>
        <time>2023-02-27T13:09:43Z</time>
      </trkpt>
      <trkpt lat="48.39903" lon="2.59456">
        <ele>120</ele>
        <time>2023-02-27T13:09:51Z</time>
      </trkpt>
      <trkpt lat="48.39885" lon="2.59472">
        <ele>119</ele>
        <time>2023-02-27T13:09:56Z</time>
      </trkpt>
      <trkpt lat="48.39883" lon="2.59483">
        <ele>119</ele>
        <time>2023-02-27T13:09:57Z</time>
      </trkpt>
      <trkpt lat="48.39886" lon="2.59597">
        <ele>117</ele>
        <time>2023-02-27T13:10:15Z</time>
      </trkpt>
      <trkpt lat="48.3989" lon="2.59677">
        <ele>118</ele>
        <time>2023-02-27T13:10:28Z</time>
      </trkpt>
      <trkpt lat="48.39894" lon="2.59757">
        <ele>119</ele>
        <time>2023-02-27T13:10:40Z</time>
      </trkpt>
      <trkpt lat="48.39902" lon="2.59793">
        <ele>119</ele>
        <time>2023-02-27T13:10:46Z</time>
      </trkpt>
      <trkpt lat="48.39907" lon="2.59843">
        <ele>119</ele>
        <time>2023-02-27T13:10:54Z</time>
      </trkpt>
      <trkpt lat="48.39904" lon="2.59859">
        <ele>120</ele>
        <time>2023-02-27T13:10:56Z</time>
      </trkpt>
      <trkpt lat="48.39898" lon="2.59876">
        <ele>120</ele>
        <time>2023-02-27T13:10:59Z</time>
      </trkpt>
      <trkpt lat="48.39847" lon="2.59975">
        <ele>120</ele>
        <time>2023-02-27T13:11:19Z</time>
      </trkpt>
      <trkpt lat="48.39833" lon="2.60006">
        <ele>119</ele>
        <time>2023-02-27T13:11:25Z</time>
      </trkpt>
      <trkpt lat="48.39814" lon="2.60102">
        <ele>118</ele>
        <time>2023-02-27T13:11:40Z</time>
      </trkpt>
      <trkpt lat="48.39794" lon="2.60198">
        <ele>117</ele>
        <time>2023-02-27T13:11:56Z</time>
      </trkpt>
      <trkpt lat="48.39787" lon="2.60231">
        <ele>118</ele>
        <time>2023-02-27T13:12:01Z</time>
      </trkpt>
      <trkpt lat="48.39798" lon="2.60243">
        <ele>118</ele>
        <time>2023-02-27T13:12:04Z</time>
      </trkpt>
      <trkpt lat="48.39827" lon="2.60306">
        <ele>119</ele>
        <time>2023-02-27T13:12:16Z</time>
      </trkpt>
      <trkpt lat="48.39864" lon="2.60397">
        <ele>121</ele>
        <time>2023-02-27T13:12:33Z</time>
      </trkpt>
      <trkpt lat="48.39869" lon="2.60403">
        <ele>121</ele>
        <time>2023-02-27T13:12:34Z</time>
      </trkpt>
      <trkpt lat="48.3988" lon="2.60407">
        <ele>121</ele>
        <time>2023-02-27T13:12:37Z</time>
      </trkpt>
      <trkpt lat="48.399" lon="2.60408">
        <ele>121</ele>
        <time>2023-02-27T13:12:41Z</time>
      </trkpt>
      <trkpt lat="48.39916" lon="2.60415">
        <ele>122</ele>
        <time>2023-02-27T13:12:45Z</time>
      </trkpt>
      <trkpt lat="48.39926" lon="2.60423">
        <ele>122</ele>
        <time>2023-02-27T13:12:48Z</time>
      </trkpt>
      <trkpt lat="48.39926" lon="2.60422">
        <ele>122</ele>
        <time>2023-02-27T13:12:48Z</time>
      </trkpt>
      <trkpt lat="48.39971" lon="2.60457">
        <ele>121</ele>
        <time>2023-02-27T13:13:00Z</time>
      </trkpt>
      <trkpt lat="48.3999" lon="2.60375">
        <ele>122</ele>
        <time>2023-02-27T13:13:13Z</time>
      </trkpt>
      <trkpt lat="48.40008" lon="2.60302">
        <ele>124</ele>
        <time>2023-02-27T13:13:26Z</time>
      </trkpt>
      <trkpt lat="48.40023" lon="2.60252">
        <ele>126</ele>
        <time>2023-02-27T13:13:34Z</time>
      </trkpt>
      <trkpt lat="48.40045" lon="2.60198">
        <ele>129</ele>
        <time>2023-02-27T13:13:44Z</time>
      </trkpt>
      <trkpt lat="48.40142" lon="2.59834">
        <ele>130</ele>
        <time>2023-02-27T13:14:45Z</time>
      </trkpt>
      <trkpt lat="48.40188" lon="2.59802">
        <ele>128</ele>
        <time>2023-02-27T13:14:56Z</time>
      </trkpt>
      <trkpt lat="48.40258" lon="2.59764">
        <ele>123</ele>
        <time>2023-02-27T13:15:14Z</time>
      </trkpt>
      <trkpt lat="48.40269" lon="2.59719">
        <ele>122</ele>
        <time>2023-02-27T13:15:21Z</time>
      </trkpt>
      <trkpt lat="48.40275" lon="2.59638">
        <ele>119</ele>
        <time>2023-02-27T13:15:34Z</time>
      </trkpt>
      <trkpt lat="48.40275" lon="2.59554">
        <ele>116</ele>
        <time>2023-02-27T13:15:47Z</time>
      </trkpt>
      <trkpt lat="48.40281" lon="2.59482">
        <ele>114</ele>
        <time>2023-02-27T13:15:58Z</time>
      </trkpt>
      <trkpt lat="48.40287" lon="2.59424">
        <ele>111</ele>
        <time>2023-02-27T13:16:07Z</time>
      </trkpt>
      <trkpt lat="48.40289" lon="2.59366">
        <ele>108</ele>
        <time>2023-02-27T13:16:16Z</time>
      </trkpt>
      <trkpt lat="48.40278" lon="2.59291">
        <ele>104</ele>
        <time>2023-02-27T13:16:28Z</time>
      </trkpt>
      <trkpt lat="48.40267" lon="2.59128">
        <ele>95</ele>
        <time>2023-02-27T13:16:54Z</time>
      </trkpt>
      <trkpt lat="48.40234" lon="2.58785">
        <ele>85</ele>
        <time>2023-02-27T13:17:47Z</time>
      </trkpt>
      <trkpt lat="48.40253" lon="2.58543">
        <ele>79</ele>
        <time>2023-02-27T13:18:25Z</time>
      </trkpt>
      <trkpt lat="48.40248" lon="2.58465">
        <ele>79</ele>
        <time>2023-02-27T13:18:37Z</time>
      </trkpt>
      <trkpt lat="48.40257" lon="2.58402">
        <ele>79</ele>
        <time>2023-02-27T13:18:47Z</time>
      </trkpt>
      <trkpt lat="48.4036" lon="2.58475">
        <ele>79</ele>
        <time>2023-02-27T13:19:14Z</time>
      </trkpt>
      <trkpt lat="48.40447" lon="2.58528">
        <ele>79</ele>
        <time>2023-02-27T13:19:36Z</time>
      </trkpt>
      <trkpt lat="48.40495" lon="2.58537">
        <ele>80</ele>
        <time>2023-02-27T13:19:47Z</time>
      </trkpt>
      <trkpt lat="48.40533" lon="2.58563">
        <ele>82</ele>
        <time>2023-02-27T13:19:57Z</time>
      </trkpt>
      <trkpt lat="48.40511" lon="2.58639">
        <ele>83</ele>
        <time>2023-02-27T13:20:10Z</time>
      </trkpt>
      <trkpt lat="48.40516" lon="2.58707">
        <ele>86</ele>
        <time>2023-02-27T13:20:20Z</time>
      </trkpt>
      <trkpt lat="48.40489" lon="2.58818">
        <ele>91</ele>
        <time>2023-02-27T13:20:39Z</time>
      </trkpt>
      <trkpt lat="48.40487" lon="2.58921">
        <ele>95</ele>
        <time>2023-02-27T13:20:55Z</time>
      </trkpt>
      <trkpt lat="48.40522" lon="2.58957">
        <ele>98</ele>
        <time>2023-02-27T13:21:04Z</time>
      </trkpt>
      <trkpt lat="48.40549" lon="2.58998">
        <ele>101</ele>
        <time>2023-02-27T13:21:13Z</time>
      </trkpt>
      <trkpt lat="48.40562" lon="2.5901">
        <ele>103</ele>
        <time>2023-02-27T13:21:17Z</time>
      </trkpt>
      <trkpt lat="48.40592" lon="2.59002">
        <ele>107</ele>
        <time>2023-02-27T13:21:24Z</time>
      </trkpt>
      <trkpt lat="48.40621" lon="2.59021">
        <ele>112</ele>
        <time>2023-02-27T13:21:32Z</time>
      </trkpt>
      <trkpt lat="48.40627" lon="2.59083">
        <ele>114</ele>
        <time>2023-02-27T13:21:41Z</time>
      </trkpt>
      <trkpt lat="48.4062" lon="2.59178">
        <ele>118</ele>
        <time>2023-02-27T13:21:56Z</time>
      </trkpt>
      <trkpt lat="48.40641" lon="2.59201">
        <ele>120</ele>
        <time>2023-02-27T13:22:02Z</time>
      </trkpt>
      <trkpt lat="48.40656" lon="2.59205">
        <ele>121</ele>
        <time>2023-02-27T13:22:06Z</time>
      </trkpt>
      <trkpt lat="48.40675" lon="2.59225">
        <ele>122</ele>
        <time>2023-02-27T13:22:11Z</time>
      </trkpt>
      <trkpt lat="48.40688" lon="2.59217">
        <ele>121</ele>
        <time>2023-02-27T13:22:14Z</time>
      </trkpt>
      <trkpt lat="48.40708" lon="2.59194">
        <ele>120</ele>
        <time>2023-02-27T13:22:20Z</time>
      </trkpt>
      <trkpt lat="48.40716" lon="2.59188">
        <ele>120</ele>
        <time>2023-02-27T13:22:22Z</time>
      </trkpt>
      <trkpt lat="48.40722" lon="2.59192">
        <ele>119</ele>
        <time>2023-02-27T13:22:24Z</time>
      </trkpt>
      <trkpt lat="48.40726" lon="2.59209">
        <ele>118</ele>
        <time>2023-02-27T13:22:27Z</time>
      </trkpt>
      <trkpt lat="48.40725" lon="2.59236">
        <ele>117</ele>
        <time>2023-02-27T13:22:31Z</time>
      </trkpt>
      <trkpt lat="48.4073" lon="2.59255">
        <ele>116</ele>
        <time>2023-02-27T13:22:34Z</time>
      </trkpt>
      <trkpt lat="48.40735" lon="2.59265">
        <ele>115</ele>
        <time>2023-02-27T13:22:36Z</time>
      </trkpt>
      <trkpt lat="48.40743" lon="2.59275">
        <ele>114</ele>
        <time>2023-02-27T13:22:38Z</time>
      </trkpt>
      <trkpt lat="48.40756" lon="2.59281">
        <ele>112</ele>
        <time>2023-02-27T13:22:42Z</time>
      </trkpt>
      <trkpt lat="48.4077" lon="2.59282">
        <ele>110</ele>
        <time>2023-02-27T13:22:45Z</time>
      </trkpt>
      <trkpt lat="48.40786" lon="2.59281">
        <ele>108</ele>
        <time>2023-02-27T13:22:49Z</time>
      </trkpt>
      <trkpt lat="48.40802" lon="2.59275">
        <ele>107</ele>
        <time>2023-02-27T13:22:52Z</time>
      </trkpt>
      <trkpt lat="48.40819" lon="2.59264">
        <ele>105</ele>
        <time>2023-02-27T13:22:57Z</time>
      </trkpt>
      <trkpt lat="48.4085" lon="2.59249">
        <ele>101</ele>
        <time>2023-02-27T13:23:04Z</time>
      </trkpt>
      <trkpt lat="48.40898" lon="2.59218">
        <ele>94</ele>
        <time>2023-02-27T13:23:17Z</time>
      </trkpt>
      <trkpt lat="48.40898" lon="2.59219">
        <ele>94</ele>
        <time>2023-02-27T13:23:17Z</time>
      </trkpt>
      <trkpt lat="48.40911" lon="2.59208">
        <ele>92</ele>
        <time>2023-02-27T13:23:20Z</time>
      </trkpt>
      <trkpt lat="48.40923" lon="2.59202">
        <ele>91</ele>
        <time>2023-02-27T13:23:23Z</time>
      </trkpt>
      <trkpt lat="48.40944" lon="2.59198">
        <ele>90</ele>
        <time>2023-02-27T13:23:28Z</time>
      </trkpt>
      <trkpt lat="48.40966" lon="2.5919">
        <ele>88</ele>
        <time>2023-02-27T13:23:33Z</time>
      </trkpt>
      <trkpt lat="48.40983" lon="2.59189">
        <ele>87</ele>
        <time>2023-02-27T13:23:37Z</time>
      </trkpt>
      <trkpt lat="48.40976" lon="2.5931">
        <ele>85</ele>
        <time>2023-02-27T13:23:56Z</time>
      </trkpt>
      <trkpt lat="48.40969" lon="2.5943">
        <ele>84</ele>
        <time>2023-02-27T13:24:15Z</time>
      </trkpt>
      <trkpt lat="48.40964" lon="2.59498">
        <ele>85</ele>
        <time>2023-02-27T13:24:25Z</time>
      </trkpt>
      <trkpt lat="48.40958" lon="2.59566">
        <ele>85</ele>
        <time>2023-02-27T13:24:36Z</time>
      </trkpt>
      <trkpt lat="48.41144" lon="2.59903">
        <ele>84</ele>
        <time>2023-02-27T13:25:44Z</time>
      </trkpt>
      <trkpt lat="48.41154" lon="2.59925">
        <ele>84</ele>
        <time>2023-02-27T13:25:48Z</time>
      </trkpt>
      <trkpt lat="48.4134" lon="2.60258">
        <ele>80</ele>
        <time>2023-02-27T13:26:56Z</time>
      </trkpt>
      <trkpt lat="48.41387" lon="2.60341">
        <ele>82</ele>
        <time>2023-02-27T13:27:13Z</time>
      </trkpt>
      <trkpt lat="48.41408" lon="2.60383">
        <ele>83</ele>
        <time>2023-02-27T13:27:21Z</time>
      </trkpt>
      <trkpt lat="48.41421" lon="2.60404">
        <ele>83</ele>
        <time>2023-02-27T13:27:25Z</time>
      </trkpt>
      <trkpt lat="48.41466" lon="2.60486">
        <ele>84</ele>
        <time>2023-02-27T13:27:42Z</time>
      </trkpt>
      <trkpt lat="48.4151" lon="2.60569">
        <ele>84</ele>
        <time>2023-02-27T13:27:58Z</time>
      </trkpt>
      <trkpt lat="48.41583" lon="2.60697">
        <ele>87</ele>
        <time>2023-02-27T13:28:24Z</time>
      </trkpt>
      <trkpt lat="48.41617" lon="2.60764">
        <ele>88</ele>
        <time>2023-02-27T13:28:37Z</time>
      </trkpt>
    </trkseg>
  </trk>
</gpx>